Time;durP1;ratioP1;P1;durP2;ratioP2;P2;SDS_P1;SDS_P2;PMS_P1;PMS_P2;Temp;Humidity;BMP_temperature;BMP_pressure;BME280_temperature;BME280_humidity;BME280_pressure;Samples;Min_cycle;Max_cycle;Signal;HPM_P1;HPM_P2
2020/12/17 00:02:27;;;;;;;23.38;14.90;;;9.70;91.50;;;;;;5009705;28;20580;-50
2020/12/17 00:04:53;;;;;;;20.90;14.77;;;9.60;91.70;;;;;;5012881;28;20050;-53
2020/12/17 00:07:18;;;;;;;21.40;14.48;;;9.60;91.70;;;;;;5014671;28;20046;-50
2020/12/17 00:09:45;;;;;;;22.40;13.73;;;9.60;91.60;;;;;;5008594;28;20043;-51
2020/12/17 00:12:10;;;;;;;20.48;14.70;;;9.70;91.60;;;;;;5005238;28;20038;-53
2020/12/17 00:14:36;;;;;;;23.33;15.52;;;9.70;91.60;;;;;;5010888;28;20046;-52
2020/12/17 00:17:03;;;;;;;24.23;15.30;;;9.60;91.60;;;;;;5013151;28;20132;-52
2020/12/17 00:19:48;;;;;;;21.02;14.90;;;9.60;91.70;;;;;;5007444;28;20053;-53
2020/12/17 00:22:36;;;;;;;21.50;14.02;;;9.60;91.80;;;;;;5009760;28;20108;-50
2020/12/17 00:25:11;;;;;;;21.48;15.60;;;9.60;91.90;;;;;;5008158;28;20052;-53
2020/12/17 00:27:38;;;;;;;21.30;15.05;;;9.50;92.00;;;;;;5013656;28;20031;-52
2020/12/17 00:30:09;;;;;;;22.08;14.68;;;9.50;92.00;;;;;;5006147;28;20046;-52
2020/12/17 00:32:35;;;;;;;19.17;13.95;;;9.50;92.00;;;;;;5010444;28;20460;-52
2020/12/17 00:35:21;;;;;;;22.67;14.63;;;9.50;92.00;;;;;;5011415;28;20046;-54
2020/12/17 00:37:47;;;;;;;22.23;15.65;;;9.50;92.10;;;;;;5009220;28;20050;-50
2020/12/17 00:40:33;;;;;;;28.10;15.20;;;9.50;92.00;;;;;;5011759;28;20513;-51
2020/12/17 00:43:00;;;;;;;21.67;15.00;;;9.60;92.00;;;;;;4997323;28;20064;-52
2020/12/17 00:45:26;;;;;;;24.92;14.95;;;9.60;92.00;;;;;;5004060;28;20470;-51
2020/12/17 00:47:52;;;;;;;20.73;14.20;;;9.60;92.10;;;;;;5003745;28;20092;-53
2020/12/17 00:50:20;;;;;;;21.48;14.82;;;9.60;92.20;;;;;;4998820;28;20085;-53
2020/12/17 00:52:47;;;;;;;22.92;15.18;;;9.50;92.30;;;;;;4994442;28;20103;-51
2020/12/17 00:55:17;;;;;;;22.17;15.02;;;9.60;92.40;;;;;;5011839;28;20079;-50
2020/12/17 00:57:43;;;;;;;22.00;15.07;;;9.60;92.20;;;;;;4993706;28;20088;-53
2020/12/17 01:00:09;;;;;;;21.23;14.65;;;9.60;92.30;;;;;;5005822;28;20038;-52
2020/12/17 01:02:55;;;;;;;21.92;14.15;;;9.60;92.30;;;;;;4993447;28;20046;-52
2020/12/17 01:05:20;;;;;;;21.45;14.95;;;9.60;92.30;;;;;;5011861;28;20099;-54
2020/12/17 01:08:06;;;;;;;23.20;15.45;;;9.60;92.40;;;;;;5015583;28;20115;-55
2020/12/17 01:10:33;;;;;;;21.23;14.35;;;9.50;92.50;;;;;;4998615;28;20046;-54
2020/12/17 01:13:00;;;;;;;21.40;14.90;;;9.50;92.50;;;;;;5005019;28;20042;-50
2020/12/17 01:15:26;;;;;;;23.83;14.98;;;9.50;92.70;;;;;;5006668;28;20038;-51
2020/12/17 01:17:53;;;;;;;23.75;15.25;;;9.50;92.60;;;;;;5003721;28;20483;-55
2020/12/17 01:20:18;;;;;;;22.17;15.02;;;9.50;92.60;;;;;;5003532;28;20045;-55
2020/12/17 01:22:44;;;;;;;21.83;14.82;;;9.50;92.60;;;;;;5002238;28;20053;-53
2020/12/17 01:25:30;;;;;;;21.83;15.50;;;9.50;92.70;;;;;;4994262;28;20049;-53
2020/12/17 01:27:56;;;;;;;23.73;15.43;;;9.50;92.70;;;;;;4995929;28;20053;-51
2020/12/17 01:30:42;;;;;;;22.73;14.27;;;9.50;92.60;;;;;;4994976;28;20076;-50
2020/12/17 01:33:08;;;;;;;22.13;15.38;;;9.50;92.80;;;;;;5009803;28;20096;-50
2020/12/17 01:35:34;;;;;;;24.63;15.27;;;9.40;92.70;;;;;;5003639;28;20073;-54
2020/12/17 01:38:02;;;;;;;22.75;15.40;;;9.50;92.60;;;;;;5009159;28;20038;-57
2020/12/17 01:40:27;;;;;;;23.92;14.82;;;9.50;92.70;;;;;;4999728;28;20118;-53
2020/12/17 01:42:53;;;;;;;21.00;14.43;;;9.50;92.60;;;;;;5007360;28;20062;-57
2020/12/17 01:45:19;;;;;;;20.27;14.55;;;9.50;92.50;;;;;;5005646;28;20073;-52
2020/12/17 01:47:47;;;;;;;20.80;14.52;;;9.50;92.60;;;;;;5014080;28;20038;-56
2020/12/17 01:50:13;;;;;;;22.70;14.77;;;9.40;92.70;;;;;;5002854;28;20105;-55
2020/12/17 01:52:39;;;;;;;21.70;14.10;;;9.40;92.70;;;;;;4995078;28;20156;-56
2020/12/17 01:55:06;;;;;;;19.50;14.30;;;9.50;92.60;;;;;;5012392;28;20042;-56
2020/12/17 01:57:33;;;;;;;25.48;14.65;;;9.50;92.60;;;;;;5011213;28;20041;-52
2020/12/17 02:00:22;;;;;;;19.52;13.98;;;9.40;92.60;;;;;;5002996;28;20415;-50
2020/12/17 02:02:47;;;;;;;21.88;15.00;;;9.40;92.60;;;;;;4999504;28;20414;-51
2020/12/17 02:05:14;;;;;;;21.02;14.02;;;9.50;92.60;;;;;;5010398;28;20050;-57
2020/12/17 02:08:00;;;;;;;21.48;14.20;;;9.50;92.60;;;;;;5010312;28;20371;-55
2020/12/17 02:10:46;;;;;;;20.65;14.05;;;9.40;92.50;;;;;;5006264;28;20073;-53
2020/12/17 02:13:12;;;;;;;21.67;14.43;;;9.40;92.50;;;;;;5002601;28;20042;-51
2020/12/17 02:15:58;;;;;;;23.10;14.23;;;9.40;92.70;;;;;;5007751;28;20049;-54
2020/12/17 02:18:31;;;;;;;19.88;13.27;;;9.40;92.80;;;;;;5001816;28;20042;-55
2020/12/17 02:20:57;;;;;;;19.20;14.65;;;9.40;92.70;;;;;;5030256;28;20491;-53
2020/12/17 02:23:44;;;;;;;22.02;14.40;;;9.40;92.70;;;;;;4998910;28;20049;-57
2020/12/17 02:26:10;;;;;;;20.73;14.48;;;9.50;92.50;;;;;;5006210;28;20514;-54
2020/12/17 02:28:37;;;;;;;18.75;13.02;;;9.50;92.50;;;;;;4995456;28;20042;-56
2020/12/17 02:31:02;;;;;;;17.67;13.05;;;9.50;92.30;;;;;;5013516;28;20062;-54
2020/12/17 02:33:28;;;;;;;20.48;13.02;;;9.50;92.20;;;;;;5003461;28;20129;-56
2020/12/17 02:36:14;;;;;;;18.77;13.75;;;9.60;92.10;;;;;;5002139;28;20070;-49
2020/12/17 02:38:43;;;;;;;19.20;13.55;;;9.60;92.10;;;;;;5011928;28;20046;-54
2020/12/17 02:41:11;;;;;;;19.50;13.38;;;9.50;92.30;;;;;;5015907;28;20063;-57
2020/12/17 02:43:40;;;;;;;20.65;13.95;;;9.50;92.50;;;;;;5012041;28;20391;-50
2020/12/17 02:46:07;;;;;;;20.13;13.40;;;9.50;92.40;;;;;;5003615;28;20035;-53
2020/12/17 02:48:53;;;;;;;20.75;13.85;;;9.50;92.50;;;;;;5017498;28;20054;-54
2020/12/17 02:51:19;;;;;;;20.60;13.73;;;9.50;92.40;;;;;;5015133;28;20041;-55
2020/12/17 02:53:48;;;;;;;19.13;13.77;;;9.50;92.40;;;;;;5019452;28;20404;-53
2020/12/17 02:56:33;;;;;;;20.90;14.20;;;9.50;92.30;;;;;;5003307;28;20038;-53
2020/12/17 02:58:59;;;;;;;20.58;14.20;;;9.50;92.40;;;;;;5010575;28;20392;-52
2020/12/17 03:01:25;;;;;;;21.60;13.63;;;9.50;92.10;;;;;;5014858;28;20038;-55
2020/12/17 03:04:12;;;;;;;20.60;12.70;;;9.50;92.10;;;;;;4998429;28;20053;-50
2020/12/17 03:06:38;;;;;;;18.88;13.77;;;9.50;92.20;;;;;;5010816;28;20046;-54
2020/12/17 03:09:24;;;;;;;17.33;13.52;;;9.50;92.30;;;;;;4998318;28;20042;-51
2020/12/17 03:11:50;;;;;;;20.83;12.95;;;9.50;92.30;;;;;;5002319;28;20043;-54
2020/12/17 03:14:18;;;;;;;19.55;13.32;;;9.60;92.10;;;;;;5010111;28;20042;-53
2020/12/17 03:16:43;;;;;;;17.92;13.70;;;9.50;92.10;;;;;;4997444;28;20039;-51
2020/12/17 03:19:09;;;;;;;18.83;13.60;;;9.60;92.20;;;;;;4997659;28;20430;-55
2020/12/17 03:21:36;;;;;;;17.85;13.27;;;9.50;92.20;;;;;;5014100;28;20125;-54
2020/12/17 03:24:02;;;;;;;19.33;12.43;;;9.50;92.30;;;;;;5003659;28;20190;-57
2020/12/17 03:26:47;;;;;;;19.35;13.00;;;9.50;92.30;;;;;;4995032;28;20129;-56
2020/12/17 03:29:13;;;;;;;23.05;12.90;;;9.60;92.20;;;;;;4997090;28;20646;-57
2020/12/17 03:31:39;;;;;;;16.85;12.80;;;9.50;92.30;;;;;;5002142;28;20049;-57
2020/12/17 03:34:05;;;;;;;18.70;13.13;;;9.60;92.30;;;;;;5003748;28;20038;-57
2020/12/17 03:36:51;;;;;;;19.15;13.15;;;9.60;92.20;;;;;;4997562;28;20042;-57
2020/12/17 03:39:17;;;;;;;17.73;12.32;;;9.50;92.30;;;;;;5000787;28;20037;-57
2020/12/17 03:41:43;;;;;;;21.33;13.73;;;9.50;92.50;;;;;;5008463;28;20065;-57
2020/12/17 03:44:08;;;;;;;21.25;12.77;;;9.50;92.60;;;;;;5000959;28;20045;-57
2020/12/17 03:46:34;;;;;;;19.48;12.38;;;9.50;92.40;;;;;;5003584;28;20065;-58
2020/12/17 03:49:00;;;;;;;19.40;13.60;;;9.50;92.30;;;;;;5011681;28;20467;-57
2020/12/17 03:51:26;;;;;;;17.67;12.60;;;9.50;92.40;;;;;;5008616;28;20090;-56
2020/12/17 03:53:51;;;;;;;17.30;12.68;;;9.50;92.50;;;;;;4993255;28;20050;-57
2020/12/17 03:56:17;;;;;;;17.15;12.35;;;9.50;92.50;;;;;;5002453;28;20042;-57
2020/12/17 03:59:03;;;;;;;18.45;13.52;;;9.50;92.40;;;;;;4995567;28;20046;-57
2020/12/17 04:01:28;;;;;;;17.75;12.45;;;9.50;92.50;;;;;;5007667;28;20048;-56
2020/12/17 04:03:54;;;;;;;20.52;12.95;;;9.50;92.50;;;;;;5011754;28;20030;-53
2020/12/17 04:06:21;;;;;;;17.30;13.23;;;9.50;92.70;;;;;;5019075;28;20133;-57
2020/12/17 04:08:47;;;;;;;19.20;12.85;;;9.40;93.00;;;;;;5011092;28;20113;-57
2020/12/17 04:11:14;;;;;;;20.08;13.43;;;9.40;92.80;;;;;;5002459;28;20088;-57
2020/12/17 04:14:01;;;;;;;18.73;13.15;;;9.40;93.00;;;;;;4991008;28;20558;-54
2020/12/17 04:16:26;;;;;;;16.92;12.95;;;9.50;92.80;;;;;;5001684;28;20129;-53
2020/12/17 04:18:52;;;;;;;19.73;13.05;;;9.40;92.90;;;;;;4992458;28;20038;-53
2020/12/17 04:21:17;;;;;;;18.38;13.75;;;9.50;92.90;;;;;;4994722;28;20458;-57
2020/12/17 04:23:43;;;;;;;17.65;12.85;;;9.40;93.00;;;;;;4999384;28;20041;-54
2020/12/17 04:26:16;;;;;;;20.17;13.93;;;9.40;93.10;;;;;;4997931;28;20525;-53
2020/12/17 04:29:02;;;;;;;17.65;13.32;;;9.40;93.10;;;;;;4997585;28;20053;-54
2020/12/17 04:31:30;;;;;;;22.25;13.48;;;9.40;93.20;;;;;;5010064;28;20041;-53
2020/12/17 04:33:56;;;;;;;19.23;13.82;;;9.30;93.20;;;;;;5002011;28;20410;-54
2020/12/17 04:36:23;;;;;;;19.67;12.90;;;9.30;93.30;;;;;;4999817;28;20503;-55
2020/12/17 04:39:08;;;;;;;21.65;13.65;;;9.30;93.30;;;;;;4994669;28;20054;-56
2020/12/17 04:41:37;;;;;;;18.65;13.30;;;9.30;93.50;;;;;;4999407;28;20046;-55
2020/12/17 04:44:02;;;;;;;17.80;13.32;;;9.30;93.50;;;;;;5004966;28;20041;-53
2020/12/17 04:46:34;;;;;;;19.90;14.02;;;9.40;93.40;;;;;;5011214;28;20080;-54
2020/12/17 04:49:02;;;;;;;19.30;14.63;;;9.40;93.40;;;;;;5009060;28;20050;-51
2020/12/17 04:51:30;;;;;;;20.80;14.68;;;9.40;93.70;;;;;;5008162;28;20042;-52
2020/12/17 04:54:00;;;;;;;21.45;13.75;;;9.40;93.40;;;;;;5005068;28;20044;-55
2020/12/17 04:57:10;;;;;;;20.00;13.60;;;9.40;93.50;;;;;;5004210;28;20045;-54
2020/12/17 04:59:40;;;;;;;22.60;12.77;;;9.40;93.50;;;;;;5008153;28;20044;-53
2020/12/17 05:02:07;;;;;;;20.60;13.93;;;9.30;93.50;;;;;;5008252;28;20479;-54
2020/12/17 05:04:44;;;;;;;19.80;13.85;;;9.30;93.70;;;;;;5004780;28;20093;-52
2020/12/17 05:07:36;;;;;;;16.83;13.45;;;9.30;93.60;;;;;;5001130;28;20052;-50
2020/12/17 05:10:21;;;;;;;21.25;14.05;;;9.30;93.70;;;;;;4997237;28;20078;-54
2020/12/17 05:12:47;;;;;;;21.17;13.95;;;9.30;93.70;;;;;;5006193;28;20076;-50
2020/12/17 05:15:33;;;;;;;20.27;13.88;;;9.30;93.80;;;;;;4994484;28;20043;-57
2020/12/17 05:17:58;;;;;;;20.92;14.65;;;9.30;93.80;;;;;;5005066;28;20474;-55
2020/12/17 05:20:26;;;;;;;24.98;14.75;;;9.40;93.90;;;;;;5009240;28;20584;-51
2020/12/17 05:23:12;;;;;;;25.08;15.48;;;9.30;93.80;;;;;;4993162;28;20049;-52
2020/12/17 05:25:38;;;;;;;26.25;15.63;;;9.30;94.00;;;;;;4992624;28;20121;-52
2020/12/17 05:28:25;;;;;;;22.75;15.63;;;9.30;94.10;;;;;;5005288;28;20042;-55
2020/12/17 05:30:51;;;;;;;21.17;14.60;;;9.30;94.10;;;;;;5002557;28;20041;-57
2020/12/17 05:33:36;;;;;;;23.88;16.05;;;9.30;94.10;;;;;;5005369;28;20073;-50
2020/12/17 05:36:02;;;;;;;22.38;15.55;;;9.20;94.20;;;;;;5006877;28;20077;-52
2020/12/17 05:38:34;;;;;;;26.05;16.80;;;9.30;94.30;;;;;;5015579;28;20043;-49
2020/12/17 05:41:20;;;;;;;23.20;15.63;;;9.30;94.30;;;;;;4995398;28;20125;-52
2020/12/17 05:43:46;;;;;;;22.55;15.52;;;9.20;94.30;;;;;;4994116;28;20436;-51
2020/12/17 05:46:11;;;;;;;28.95;16.30;;;9.20;94.40;;;;;;5003387;28;20413;-51
2020/12/17 05:48:37;;;;;;;21.75;15.95;;;9.30;94.40;;;;;;5004938;28;20077;-53
2020/12/17 05:51:03;;;;;;;26.15;16.02;;;9.30;94.50;;;;;;5006280;28;20062;-51
2020/12/17 05:53:30;;;;;;;23.10;15.93;;;9.30;94.60;;;;;;5002613;28;20033;-56
2020/12/17 05:56:07;;;;;;;23.70;16.40;;;9.20;94.50;;;;;;5007839;28;20431;-51
2020/12/17 05:58:44;;;;;;;26.23;16.40;;;9.20;94.50;;;;;;5014202;28;20050;-51
2020/12/17 06:01:12;;;;;;;23.63;15.77;;;9.20;94.60;;;;;;5013319;28;20073;-53
2020/12/17 06:03:59;;;;;;;22.95;15.75;;;9.20;94.60;;;;;;5012665;28;20050;-51
2020/12/17 06:06:49;;;;;;;26.40;16.55;;;9.30;94.50;;;;;;5007655;28;20129;-54
2020/12/17 06:09:31;;;;;;;27.45;17.15;;;9.30;94.60;;;;;;4996055;28;20453;-51
2020/12/17 06:11:57;;;;;;;26.80;16.83;;;9.20;94.70;;;;;;4998427;28;20403;-49
2020/12/17 06:14:23;;;;;;;24.38;16.98;;;9.20;94.70;;;;;;4995179;28;20042;-49
2020/12/17 06:17:09;;;;;;;28.08;17.30;;;9.20;95.00;;;;;;5012536;28;20096;-50
2020/12/17 06:19:36;;;;;;;26.65;16.77;;;9.20;94.80;;;;;;5007383;28;20188;-52
2020/12/17 06:22:11;;;;;;;24.55;17.50;;;9.20;94.90;;;;;;5011896;28;20049;-49
2020/12/17 06:24:37;;;;;;;31.27;18.65;;;9.20;94.90;;;;;;5014639;28;20069;-50
2020/12/17 06:27:09;;;;;;;25.42;17.48;;;9.20;94.90;;;;;;4999584;28;20435;-51
2020/12/17 06:30:08;;;;;;;25.00;16.67;;;9.20;94.90;;;;;;4991769;28;20137;-53
2020/12/17 06:32:36;;;;;;;29.17;18.13;;;9.20;94.90;;;;;;4998007;28;20181;-52
2020/12/17 06:35:13;;;;;;;26.98;18.33;;;9.30;94.90;;;;;;5007631;28;20042;-53
2020/12/17 06:37:39;;;;;;;28.63;18.30;;;9.20;94.90;;;;;;5003749;28;20043;-53
2020/12/17 06:40:05;;;;;;;25.92;18.08;;;9.20;95.00;;;;;;5004715;28;20046;-53
2020/12/17 06:42:31;;;;;;;29.10;17.77;;;9.20;95.00;;;;;;5009287;28;20510;-54
2020/12/17 06:44:57;;;;;;;24.67;17.15;;;9.20;95.00;;;;;;5003289;28;20490;-54
2020/12/17 06:47:28;;;;;;;23.55;17.33;;;9.20;95.00;;;;;;5011949;28;20034;-53
2020/12/17 06:49:54;;;;;;;24.13;17.05;;;9.20;95.10;;;;;;5018276;28;20037;-54
2020/12/17 06:52:21;;;;;;;27.65;17.38;;;9.20;95.00;;;;;;5001490;28;20096;-54
2020/12/17 06:55:38;;;;;;;25.45;16.60;;;9.20;95.10;;;;;;5002684;28;20096;-54
2020/12/17 06:58:05;;;;;;;22.65;16.50;;;9.20;95.10;;;;;;5002055;28;20081;-51
2020/12/17 07:00:30;;;;;;;26.90;16.50;;;9.30;95.10;;;;;;4997732;28;20042;-54
2020/12/17 07:02:56;;;;;;;24.20;17.25;;;9.20;95.00;;;;;;4996604;28;20137;-53
2020/12/17 07:05:32;;;;;;;22.45;16.00;;;9.20;95.10;;;;;;4993555;28;20050;-55
2020/12/17 07:07:59;;;;;;;20.27;14.93;;;9.10;95.20;;;;;;4996480;28;20081;-55
2020/12/17 07:10:26;;;;;;;22.92;16.58;;;9.20;95.20;;;;;;4992610;28;20042;-54
2020/12/17 07:13:39;;;;;;;24.65;16.70;;;9.20;95.10;;;;;;4994468;28;20512;-55
2020/12/17 07:16:06;;;;;;;22.50;15.85;;;9.20;95.10;;;;;;5000707;28;20039;-55
2020/12/17 07:18:31;;;;;;;22.23;14.85;;;9.20;95.00;;;;;;5006927;28;20037;-55
2020/12/17 07:21:06;;;;;;;21.38;15.35;;;9.20;95.10;;;;;;5007759;28;20092;-54
2020/12/17 07:23:51;;;;;;;21.67;15.23;;;9.20;95.10;;;;;;5007080;28;20081;-54
2020/12/17 07:26:21;;;;;;;22.10;15.93;;;9.20;95.00;;;;;;5004339;28;20062;-51
2020/12/17 07:28:53;;;;;;;20.48;15.60;;;9.20;95.10;;;;;;5012761;28;20116;-55
2020/12/17 07:31:28;;;;;;;19.67;14.95;;;9.20;95.00;;;;;;4996776;28;20081;-56
2020/12/17 07:33:54;;;;;;;22.27;15.45;;;9.20;94.90;;;;;;4996476;28;20071;-57
2020/12/17 07:36:58;;;;;;;19.95;15.90;;;9.20;94.90;;;;;;5004327;28;20038;-57
2020/12/17 07:39:31;;;;;;;22.25;14.85;;;9.20;94.90;;;;;;4993855;28;20045;-56
2020/12/17 07:42:08;;;;;;;19.98;15.63;;;9.20;94.90;;;;;;5003066;28;20041;-57
2020/12/17 07:44:35;;;;;;;22.23;16.15;;;9.20;94.90;;;;;;4999003;28;20038;-57
2020/12/17 07:47:21;;;;;;;19.40;15.43;;;9.10;94.90;;;;;;5005536;28;20048;-57
2020/12/17 07:49:47;;;;;;;23.45;15.93;;;9.10;94.90;;;;;;4997987;28;20050;-57
2020/12/17 07:52:31;;;;;;;22.10;16.70;;;9.20;94.90;;;;;;4998348;28;20113;-57
2020/12/17 07:55:20;;;;;;;23.50;17.35;;;9.10;94.90;;;;;;4990484;28;20080;-56
2020/12/17 07:57:45;;;;;;;24.42;17.00;;;9.10;94.90;;;;;;4999979;28;20047;-57
2020/12/17 08:00:11;;;;;;;24.50;17.17;;;9.10;94.90;;;;;;5005872;28;20099;-57
2020/12/17 08:02:36;;;;;;;21.67;16.05;;;9.10;95.00;;;;;;4996354;28;20462;-57
2020/12/17 08:05:02;;;;;;;25.00;18.40;;;9.10;94.90;;;;;;4996942;28;20048;-54
2020/12/17 08:07:27;;;;;;;25.38;18.10;;;9.00;95.00;;;;;;4993368;28;20038;-57
2020/12/17 08:10:15;;;;;;;25.13;17.45;;;9.00;94.90;;;;;;4996481;28;20054;-56
2020/12/17 08:12:41;;;;;;;26.20;17.30;;;9.00;95.00;;;;;;4997542;28;20054;-56
2020/12/17 08:15:07;;;;;;;23.77;18.38;;;9.00;95.00;;;;;;5007520;28;20092;-56
2020/12/17 08:17:33;;;;;;;24.63;17.52;;;9.00;95.00;;;;;;5001254;28;20041;-57
2020/12/17 08:19:59;;;;;;;26.73;17.83;;;9.00;95.00;;;;;;4996328;28;20054;-56
2020/12/17 08:22:28;;;;;;;24.90;18.70;;;9.00;95.00;;;;;;4999630;28;20049;-54
2020/12/17 08:24:54;;;;;;;27.67;19.02;;;9.00;95.00;;;;;;4997057;28;20046;-57
2020/12/17 08:27:22;;;;;;;29.33;19.13;;;9.00;95.00;;;;;;5001340;28;20053;-57
2020/12/17 08:29:47;;;;;;;27.52;19.55;;;9.00;95.00;;;;;;5003129;28;20043;-57
2020/12/17 08:32:13;;;;;;;31.67;20.48;;;9.10;94.90;;;;;;4997522;28;20088;-57
2020/12/17 08:34:56;;;;;;;32.33;20.90;;;9.00;94.90;;;;;;4992996;28;20045;-57
2020/12/17 08:37:22;;;;;;;28.90;20.50;;;9.00;94.90;;;;;;5000186;28;20046;-57
2020/12/17 08:39:59;;;;;;;32.13;21.17;;;9.00;94.90;;;;;;5007769;28;20092;-56
2020/12/17 08:42:31;;;;;;;32.72;22.27;;;9.20;95.10;;;;;;4995926;28;20035;-56
2020/12/17 08:45:19;;;;;;;30.83;21.88;;;9.10;94.90;;;;;;4993001;28;20046;-56
2020/12/17 08:47:48;;;;;;;30.50;20.95;;;9.10;94.80;;;;;;4992572;28;20088;-54
2020/12/17 08:50:15;;;;;;;31.45;21.45;;;9.10;94.80;;;;;;4991411;28;20495;-56
2020/12/17 08:52:42;;;;;;;31.42;22.73;;;9.20;94.80;;;;;;4995216;28;20438;-55
2020/12/17 08:55:09;;;;;;;31.65;21.55;;;9.10;94.70;;;;;;4994123;28;20046;-55
2020/12/17 08:57:35;;;;;;;32.80;22.45;;;9.10;94.80;;;;;;5005577;28;20034;-54
2020/12/17 09:00:21;;;;;;;32.88;22.58;;;9.10;94.80;;;;;;4998783;28;20077;-56
2020/12/17 09:02:57;;;;;;;31.73;21.73;;;9.10;94.90;;;;;;4994728;28;20088;-57
2020/12/17 09:05:23;;;;;;;30.10;20.75;;;9.10;95.00;;;;;;5007726;28;20081;-55
2020/12/17 09:07:53;;;;;;;28.58;20.60;;;9.20;94.80;;;;;;4996962;28;20498;-55
2020/12/17 09:10:18;;;;;;;30.67;21.15;;;9.20;94.70;;;;;;5003633;28;20041;-56
2020/12/17 09:12:44;;;;;;;33.00;21.98;;;9.10;94.60;;;;;;5002942;28;20052;-55
2020/12/17 09:15:12;;;;;;;29.58;20.27;;;9.20;94.70;;;;;;5001016;28;20192;-54
2020/12/17 09:17:39;;;;;;;29.70;20.85;;;9.10;94.60;;;;;;5002159;28;20113;-57
2020/12/17 09:20:20;;;;;;;30.23;21.08;;;9.10;94.70;;;;;;5010705;28;20038;-56
2020/12/17 09:22:46;;;;;;;29.15;19.95;;;9.10;94.70;;;;;;4996610;28;20050;-56
2020/12/17 09:25:32;;;;;;;29.90;20.40;;;9.10;94.70;;;;;;4994536;28;20045;-57
2020/12/17 09:28:22;;;;;;;25.23;19.55;;;9.10;94.70;;;;;;4997434;28;20050;-56
2020/12/17 09:30:48;;;;;;;27.55;20.10;;;9.10;94.80;;;;;;4995272;28;20113;-56
2020/12/17 09:33:17;;;;;;;28.83;20.58;;;9.20;94.80;;;;;;4990428;28;20120;-57
2020/12/17 09:35:43;;;;;;;25.20;19.05;;;9.20;94.70;;;;;;4995585;28;20065;-57
2020/12/17 09:38:29;;;;;;;26.45;19.48;;;9.30;94.70;;;;;;5008265;28;20053;-56
2020/12/17 09:41:16;;;;;;;25.15;18.80;;;9.30;94.70;;;;;;5007915;28;20069;-54
2020/12/17 09:43:48;;;;;;;22.88;17.60;;;9.40;94.60;;;;;;4996644;28;20050;-56
2020/12/17 09:46:41;;;;;;;25.92;18.58;;;9.40;94.40;;;;;;4997190;28;20038;-57
2020/12/17 09:49:08;;;;;;;25.88;18.67;;;9.40;94.30;;;;;;5010357;28;20603;-56
2020/12/17 09:52:02;;;;;;;25.00;19.17;;;9.40;94.30;;;;;;4997601;28;20053;-57
2020/12/17 09:54:28;;;;;;;26.35;19.65;;;9.40;94.30;;;;;;5005607;28;20042;-56
2020/12/17 09:57:06;;;;;;;24.10;19.13;;;9.40;94.30;;;;;;4993579;28;20527;-56
2020/12/17 09:59:33;;;;;;;27.02;19.77;;;9.50;94.20;;;;;;5007884;28;21783;-56
2020/12/17 10:02:18;;;;;;;26.05;20.13;;;9.40;94.10;;;;;;4998482;28;20046;-56
2020/12/17 10:04:45;;;;;;;27.63;20.10;;;9.50;94.10;;;;;;5003556;28;20097;-54
2020/12/17 10:07:11;;;;;;;27.88;20.83;;;9.50;94.20;;;;;;4989651;28;20042;-56
2020/12/17 10:09:57;;;;;;;26.67;19.58;;;9.50;94.20;;;;;;4999707;28;20097;-55
2020/12/17 10:12:24;;;;;;;28.33;21.63;;;9.50;94.20;;;;;;4996459;28;20053;-55
2020/12/17 10:14:50;;;;;;;29.65;22.05;;;9.50;94.20;;;;;;4995023;28;20089;-55
2020/12/17 10:17:35;;;;;;;29.30;21.40;;;9.50;94.20;;;;;;4993467;28;20491;-55
2020/12/17 10:20:04;;;;;;;28.85;21.90;;;9.50;94.20;;;;;;4994938;28;20061;-52
2020/12/17 10:22:29;;;;;;;30.73;21.35;;;9.50;94.10;;;;;;4996720;28;20042;-55
2020/12/17 10:24:55;;;;;;;32.92;23.17;;;9.50;94.10;;;;;;5002239;28;20458;-55
2020/12/17 10:27:21;;;;;;;27.98;21.48;;;9.50;94.10;;;;;;4995087;28;20459;-55
2020/12/17 10:29:46;;;;;;;29.80;22.42;;;9.50;94.10;;;;;;4994413;28;20108;-54
2020/12/17 10:32:13;;;;;;;29.98;21.95;;;9.50;94.10;;;;;;5009599;28;20453;-55
2020/12/17 10:34:39;;;;;;;28.85;22.27;;;9.50;94.00;;;;;;5007340;28;20095;-56
2020/12/17 10:37:26;;;;;;;28.92;21.67;;;9.60;94.00;;;;;;5008973;28;20410;-54
2020/12/17 10:39:52;;;;;;;29.00;22.85;;;9.60;94.10;;;;;;5010235;28;20130;-56
2020/12/17 10:42:39;;;;;;;28.20;20.35;;;9.60;93.90;;;;;;4994343;28;20496;-55
2020/12/17 10:45:24;;;;;;;29.33;21.05;;;9.60;93.80;;;;;;4996594;28;20154;-55
2020/12/17 10:48:10;;;;;;;29.58;21.95;;;9.60;93.90;;;;;;4993440;28;20072;-55
2020/12/17 10:50:35;;;;;;;28.88;22.05;;;9.70;93.70;;;;;;5005371;28;20487;-55
2020/12/17 10:53:21;;;;;;;33.63;22.77;;;9.70;93.80;;;;;;5004028;28;20046;-55
2020/12/17 10:55:47;;;;;;;29.95;21.77;;;9.60;93.80;;;;;;5000621;28;20396;-53
2020/12/17 10:58:14;;;;;;;28.33;22.23;;;9.70;93.90;;;;;;5008216;28;20093;-55
2020/12/17 11:00:40;;;;;;;26.77;20.90;;;9.70;93.70;;;;;;5008752;28;20052;-55
2020/12/17 11:03:25;;;;;;;31.05;21.38;;;9.70;93.80;;;;;;4995202;28;20053;-55
2020/12/17 11:06:19;;;;;;;31.60;22.27;;;9.70;93.90;;;;;;4992845;28;20050;-55
2020/12/17 11:08:44;;;;;;;27.50;21.33;;;9.60;93.90;;;;;;5000596;28;20104;-55
2020/12/17 11:11:12;;;;;;;29.38;21.60;;;9.60;93.90;;;;;;5002316;28;20045;-52
2020/12/17 11:13:38;;;;;;;32.17;22.67;;;9.60;94.00;;;;;;4998915;28;20129;-56
2020/12/17 11:16:04;;;;;;;29.05;22.08;;;9.70;94.00;;;;;;5005626;28;20040;-52
2020/12/17 11:18:30;;;;;;;31.55;21.45;;;9.70;93.80;;;;;;5006451;28;20443;-51
2020/12/17 11:20:55;;;;;;;29.90;20.80;;;9.80;93.70;;;;;;4998361;28;20129;-55
2020/12/17 11:23:21;;;;;;;28.40;19.85;;;9.80;93.60;;;;;;4997514;28;20053;-51
2020/12/17 11:25:47;;;;;;;28.52;21.25;;;9.80;93.50;;;;;;5008077;28;20041;-54
2020/12/17 11:28:12;;;;;;;22.80;19.27;;;9.80;93.50;;;;;;4998446;28;20133;-51
2020/12/17 11:30:38;;;;;;;23.92;18.15;;;9.80;93.60;;;;;;5012401;28;20038;-51
2020/12/17 11:33:05;;;;;;;24.40;17.85;;;9.80;93.60;;;;;;4996521;28;20035;-52
2020/12/17 11:35:31;;;;;;;25.08;17.70;;;9.80;93.40;;;;;;4997055;28;20458;-54
2020/12/17 11:37:57;;;;;;;23.70;18.45;;;9.80;93.40;;;;;;5011804;28;20447;-50
2020/12/17 11:40:24;;;;;;;26.55;17.20;;;9.80;93.40;;;;;;4996861;28;20118;-51
2020/12/17 11:42:50;;;;;;;22.38;16.58;;;9.80;93.50;;;;;;4994422;28;20046;-54
2020/12/17 11:45:16;;;;;;;20.00;16.65;;;9.80;93.40;;;;;;4999844;28;20061;-51
2020/12/17 11:48:02;;;;;;;18.52;14.20;;;9.80;93.40;;;;;;4992875;28;20105;-51
2020/12/17 11:50:28;;;;;;;19.55;12.60;;;9.90;93.20;;;;;;5008643;28;20042;-52
2020/12/17 11:52:54;;;;;;;17.95;13.23;;;9.90;92.80;;;;;;5003442;28;20042;-55
2020/12/17 11:55:39;;;;;;;15.35;11.77;;;9.90;92.90;;;;;;4996027;28;20047;-53
2020/12/17 11:58:05;;;;;;;20.75;12.55;;;9.90;92.70;;;;;;5010491;28;20707;-51
2020/12/17 12:00:31;;;;;;;19.27;11.52;;;9.90;92.50;;;;;;4997752;28;20058;-55
2020/12/17 12:02:56;;;;;;;17.77;11.68;;;9.90;92.50;;;;;;4996380;28;20058;-56
2020/12/17 12:05:22;;;;;;;16.33;11.25;;;9.90;92.50;;;;;;4995568;28;20042;-55
2020/12/17 12:08:09;;;;;;;17.15;10.25;;;9.90;92.50;;;;;;4995087;28;20050;-53
2020/12/17 12:10:34;;;;;;;19.17;10.50;;;9.90;92.30;;;;;;4994131;28;20411;-55
2020/12/17 12:13:00;;;;;;;22.35;10.93;;;9.90;92.20;;;;;;4994629;28;20125;-56
2020/12/17 12:15:25;;;;;;;24.83;11.95;;;9.90;92.30;;;;;;4995342;28;20057;-55
2020/12/17 12:17:52;;;;;;;17.02;10.38;;;9.90;92.40;;;;;;4999882;28;20047;-54
2020/12/17 12:20:19;;;;;;;18.23;10.75;;;9.90;92.20;;;;;;4999704;28;20038;-54
2020/12/17 12:23:05;;;;;;;17.17;10.18;;;9.90;92.30;;;;;;4995108;28;20423;-55
2020/12/17 12:25:31;;;;;;;13.70;9.05;;;10.00;92.20;;;;;;4993986;28;20046;-55
2020/12/17 12:27:56;;;;;;;19.33;10.23;;;10.00;92.10;;;;;;5006304;28;20053;-55
2020/12/17 12:30:22;;;;;;;14.52;9.68;;;10.00;92.10;;;;;;5019082;28;20145;-52
2020/12/17 12:32:47;;;;;;;13.02;9.00;;;10.10;92.10;;;;;;5002073;28;20038;-57
2020/12/17 12:35:13;;;;;;;13.02;9.00;;;10.10;92.10;;;;;;4998933;28;20495;-56
2020/12/17 12:37:59;;;;;;;13.70;8.30;;;10.10;91.90;;;;;;4999562;28;20467;-56
2020/12/17 12:40:45;;;;;;;16.15;8.25;;;10.10;91.70;;;;;;5008394;28;20038;-56
2020/12/17 12:43:11;;;;;;;14.40;7.85;;;10.10;91.60;;;;;;4999074;28;20503;-56
2020/12/17 12:45:36;;;;;;;13.20;7.60;;;10.20;91.40;;;;;;5007149;28;20061;-56
2020/12/17 12:48:02;;;;;;;14.52;8.10;;;10.10;91.20;;;;;;5008484;28;20038;-56
2020/12/17 12:50:49;;;;;;;13.27;7.28;;;10.10;91.60;;;;;;4996915;28;20577;-56
2020/12/17 12:53:15;;;;;;;13.50;7.65;;;10.10;91.20;;;;;;4996991;28;20406;-56
2020/12/17 12:55:48;;;;;;;13.50;7.50;;;10.20;91.60;;;;;;4993737;28;20046;-56
2020/12/17 12:58:14;;;;;;;16.25;6.75;;;10.20;91.20;;;;;;4993352;28;20034;-56
2020/12/17 13:01:00;;;;;;;14.43;6.80;;;10.20;91.20;;;;;;4984462;28;20085;-58